Weather at Barnstable Municipal Boardman Polando Field

Public forecast

Using degrees Fahrenheit for public forecast. Weather courtesy of forecast.io.

Current aviation weather report (METAR) for Barnstable Municipal Boardman Polando Field

Retrieved 2020/09/28 18:03 UTC (51 minutes ago):

KHYA 281803Z 17007KT 130V200 10SM BKN007 BKN018 OVC080 24/21 A2995 RMK AO2 T02390211

Aviation forecast (TAF) for Barnstable Municipal Boardman Polando Field

Retrieved 2020/09/28 18:33 UTC (21 minutes ago):

TAF KHYA 281729Z 2818/2918 18010KT P6SM -SHRA BKN005 FM282200 17005KT P6SM VCSH BKN005 FM290400 19005KT 1/2SM FG VCSH OVC003 FM291300 19008KT P6SM VCSH OVC003